createdAt,value
2019-04-21T00:00:54.147Z,8.20
2019-04-21T00:03:27.482Z,8.10
2019-04-21T00:06:11.895Z,8.10
2019-04-21T00:08:42.830Z,8.10
2019-04-21T00:11:20.714Z,8.00
2019-04-21T00:13:43.887Z,8.00
2019-04-21T00:16:04.944Z,8.00
2019-04-21T00:18:54.846Z,8.00
2019-04-21T00:21:29.132Z,7.90
2019-04-21T00:24:22.728Z,7.90
2019-04-21T00:27:02.482Z,7.90
2019-04-21T00:29:38.445Z,7.90
2019-04-21T00:32:05.601Z,7.80
2019-04-21T00:34:23.632Z,7.80
2019-04-21T00:37:08.245Z,7.70
2019-04-21T00:42:14.383Z,7.80
2019-04-21T00:44:38.792Z,7.80
2019-04-21T00:47:25.413Z,7.90
2019-04-21T00:49:59.076Z,7.90
2019-04-21T00:55:14.245Z,7.80
2019-04-21T00:57:42.813Z,7.80
2019-04-21T01:00:08.457Z,7.80
2019-04-21T01:02:41.604Z,7.80
2019-04-21T01:05:14.668Z,7.80
2019-04-21T01:07:37.084Z,7.70
2019-04-21T01:10:05.237Z,7.70
2019-04-21T01:12:44.505Z,7.70
2019-04-21T01:15:18.570Z,7.70
2019-04-21T01:17:46.470Z,7.60
2019-04-21T01:20:10.468Z,7.50
2019-04-21T01:22:26.414Z,7.60
2019-04-21T01:25:07.021Z,7.50
2019-04-21T01:27:50.820Z,7.60
2019-04-21T01:30:16.500Z,7.60
2019-04-21T01:32:53.124Z,7.70
2019-04-21T01:35:21.106Z,7.70
2019-04-21T01:38:00.125Z,7.70
2019-04-21T01:40:28.869Z,7.60
2019-04-21T01:42:55.664Z,7.50
2019-04-21T01:45:32.126Z,7.40
2019-04-21T01:48:03.541Z,7.30
2019-04-21T01:50:34.471Z,7.10
2019-04-21T01:53:17.550Z,7.10
2019-04-21T01:55:48.545Z,7.00
2019-04-21T01:58:21.079Z,6.90
2019-04-21T02:00:56.884Z,6.90
2019-04-21T02:06:11.115Z,6.80
2019-04-21T02:08:38.896Z,6.80
2019-04-21T02:11:15.629Z,6.70
2019-04-21T02:13:46.861Z,6.70
2019-04-21T02:16:11.992Z,6.70
2019-04-21T02:18:46.432Z,6.60
2019-04-21T02:21:04.417Z,6.60
2019-04-21T02:23:53.805Z,6.60
2019-04-21T02:26:22.593Z,6.50
2019-04-21T09:41:27.800Z,17.90
2019-04-21T09:43:59.282Z,18.00
2019-04-21T09:46:29.882Z,18.00
2019-04-21T09:49:04.147Z,18.00
2019-04-21T09:51:30.958Z,18.00
2019-04-21T09:54:05.805Z,18.00
2019-04-21T09:56:43.634Z,18.00
2019-04-21T09:59:13.517Z,18.10
2019-04-21T10:01:49.078Z,18.30
2019-04-21T10:04:07.533Z,18.40
2019-04-21T10:06:37.461Z,18.40
2019-04-21T10:09:11.568Z,18.50
2019-04-21T10:11:41.483Z,18.60
2019-04-21T10:14:11.758Z,18.70
2019-04-21T10:16:53.949Z,18.70
2019-04-21T10:19:25.366Z,18.80
2019-04-21T10:21:56.306Z,18.90
2019-04-21T10:24:30.662Z,18.90
2019-04-21T10:27:03.586Z,18.90
2019-04-21T10:29:33.335Z,18.90
2019-04-21T10:32:03.614Z,18.90
2019-04-21T10:34:33.423Z,18.90
2019-04-21T10:37:04.936Z,19.00
2019-04-21T10:39:35.701Z,19.10
2019-04-21T10:42:05.704Z,19.10
2019-04-21T10:44:41.406Z,19.20
2019-04-21T10:47:11.189Z,19.30
2019-04-21T10:49:40.894Z,19.30
2019-04-21T10:52:15.265Z,19.30
2019-04-21T10:55:06.938Z,19.30
2019-04-21T10:57:18.266Z,19.40
2019-04-21T10:59:50.738Z,19.40
2019-04-21T11:02:21.171Z,19.40
2019-04-21T11:05:58.803Z,19.40
2019-04-21T11:08:34.174Z,19.50
2019-04-21T11:11:00.082Z,19.60
2019-04-21T11:13:30.750Z,19.70
2019-04-21T11:16:01.298Z,19.70
2019-04-21T11:18:31.697Z,19.80
2019-04-21T11:21:02.810Z,19.80
2019-04-21T11:23:33.188Z,19.80
2019-04-21T11:26:04.275Z,19.80
2019-04-21T11:28:34.640Z,19.80
2019-04-21T11:31:04.847Z,19.80
2019-04-21T11:33:35.573Z,19.90
2019-04-21T11:36:07.068Z,19.90
2019-04-21T11:38:57.100Z,19.90
2019-04-21T11:41:11.925Z,19.80
2019-04-21T11:43:43.157Z,19.80
2019-04-21T11:46:13.062Z,19.90
2019-04-21T11:48:44.088Z,19.90
2019-04-21T11:51:15.145Z,19.90
2019-04-21T11:53:45.010Z,19.90
2019-04-21T11:56:14.769Z,20.00
2019-04-21T11:58:45.822Z,20.10
2019-04-21T12:01:15.846Z,20.20
2019-04-21T12:03:45.583Z,20.30
2019-04-21T12:06:15.521Z,20.30
2019-04-21T12:08:49.384Z,20.30
2019-04-21T12:11:17.754Z,20.40
2019-04-21T12:13:47.980Z,20.50
2019-04-21T12:16:18.985Z,20.50
2019-04-21T12:18:50.996Z,20.50
2019-04-21T12:21:21.266Z,20.50
2019-04-21T12:23:52.305Z,20.60
2019-04-21T12:26:22.195Z,20.70
2019-04-21T12:28:53.556Z,20.70
2019-04-21T12:31:41.362Z,20.70
2019-04-21T12:34:12.409Z,20.70
2019-04-21T12:36:43.609Z,20.80
2019-04-21T12:39:14.890Z,20.50
2019-04-21T12:41:44.704Z,20.20
2019-04-21T12:44:20.439Z,20.00
2019-04-21T12:46:51.865Z,20.10
2019-04-21T12:49:22.777Z,20.30
2019-04-21T12:51:53.525Z,20.40
2019-04-21T12:54:23.803Z,20.60
2019-04-21T12:56:53.823Z,20.70
2019-04-21T12:59:24.589Z,20.90
2019-04-21T13:01:54.895Z,21.00
2019-04-21T13:04:25.962Z,21.00
2019-04-21T13:06:57.336Z,21.20
2019-04-21T13:09:29.183Z,21.20
2019-04-21T13:11:59.448Z,21.30
2019-04-21T13:14:29.590Z,21.30
2019-04-21T13:17:01.383Z,21.40
2019-04-21T13:19:31.523Z,21.50
2019-04-21T13:22:01.631Z,21.50
2019-04-21T13:24:31.786Z,21.50
2019-04-21T13:27:03.950Z,21.50
2019-04-21T13:29:34.453Z,21.60
2019-04-21T13:32:05.481Z,21.60
2019-04-21T13:34:35.937Z,21.60
2019-04-21T13:37:05.856Z,21.70
2019-04-21T13:40:01.799Z,21.70
2019-04-21T13:42:17.475Z,21.80
2019-04-21T13:44:41.866Z,21.90
2019-04-21T13:47:12.489Z,21.60
2019-04-21T13:49:43.360Z,21.70
2019-04-21T13:52:13.170Z,21.70
2019-04-21T13:54:43.273Z,21.70
2019-04-21T13:57:14.413Z,21.70
2019-04-21T13:59:44.492Z,21.80
2019-04-21T14:02:14.247Z,21.90
2019-04-21T14:04:45.283Z,22.00
2019-04-21T14:07:16.364Z,22.10
2019-04-21T14:09:55.233Z,22.20
2019-04-21T14:12:17.513Z,22.30
2019-04-21T14:14:48.331Z,22.30
2019-04-21T14:17:19.088Z,22.30
2019-04-21T14:19:49.021Z,22.30
2019-04-21T14:22:20.078Z,22.30
2019-04-21T14:24:50.015Z,22.30
2019-04-21T14:27:20.484Z,22.30
2019-04-21T14:29:51.440Z,22.20
2019-04-21T14:32:22.325Z,22.20
2019-04-21T14:34:53.943Z,22.20
2019-04-21T14:37:24.761Z,22.20
2019-04-21T14:40:01.301Z,22.20
2019-04-21T14:42:26.459Z,22.30
2019-04-21T14:44:56.790Z,22.20
2019-04-21T14:47:44.645Z,22.10
2019-04-21T14:50:17.577Z,21.90
2019-04-21T14:52:50.423Z,21.90
2019-04-21T14:55:22.955Z,21.90
2019-04-21T14:57:52.658Z,22.10
2019-04-21T15:00:24.996Z,22.10
2019-04-21T15:02:55.861Z,21.90
2019-04-21T15:05:25.677Z,21.80
2019-04-21T15:07:55.390Z,21.90
2019-04-21T15:10:28.616Z,21.90
2019-04-21T15:12:57.506Z,21.70
2019-04-21T15:15:27.814Z,21.80
2019-04-21T15:18:01.854Z,21.80
2019-04-21T15:20:38.457Z,21.90
2019-04-21T15:23:08.791Z,21.90
2019-04-21T15:25:38.586Z,21.90
2019-04-21T15:28:09.543Z,21.90
2019-04-21T15:30:40.711Z,21.80
2019-04-21T15:33:10.708Z,21.80
2019-04-21T15:35:40.676Z,21.80
2019-04-21T15:38:11.844Z,21.50
2019-04-21T15:40:49.719Z,21.40
2019-04-21T15:43:13.051Z,21.40
2019-04-21T15:45:42.786Z,21.50
2019-04-21T15:48:13.851Z,21.40
2019-04-21T15:50:44.146Z,21.20
2019-04-21T15:53:21.692Z,21.10
2019-04-21T15:56:02.951Z,21.10
2019-04-21T15:58:48.432Z,21.10
2019-04-21T16:01:26.525Z,20.90
2019-04-21T16:03:58.804Z,20.90
2019-04-21T16:06:27.767Z,20.80
2019-04-21T16:09:00.797Z,20.90
2019-04-21T16:11:28.792Z,20.80
2019-04-21T16:13:59.648Z,20.80
2019-04-21T16:16:31.053Z,20.80
2019-04-21T16:19:00.825Z,20.70
2019-04-21T16:21:35.282Z,20.70
2019-04-21T16:24:04.507Z,20.70
2019-04-21T16:26:34.969Z,20.70
2019-04-21T16:29:05.090Z,20.60
2019-04-21T16:31:36.345Z,20.60
2019-04-21T16:34:07.250Z,20.50
2019-04-21T16:36:37.985Z,20.40
2019-04-21T16:39:09.408Z,20.40
2019-04-21T16:41:40.380Z,20.30
2019-04-21T16:44:11.318Z,20.20
2019-04-21T16:46:41.353Z,20.10
2019-04-21T16:49:11.798Z,20.00
2019-04-21T16:51:42.300Z,19.80
2019-04-21T16:54:13.735Z,19.60
2019-04-21T16:56:45.681Z,19.60
2019-04-21T16:59:17.095Z,19.50
2019-04-21T17:01:46.911Z,19.30
2019-04-21T17:04:16.554Z,19.30
2019-04-21T17:06:47.144Z,19.20
2019-04-21T17:09:16.878Z,19.20
2019-04-21T17:11:48.493Z,19.10
2019-04-21T17:14:39.605Z,18.90
2019-04-21T17:17:16.329Z,18.80
2019-04-21T17:19:29.127Z,18.80
2019-04-21T17:21:55.381Z,18.60
2019-04-21T17:24:26.442Z,18.50
2019-04-21T17:26:57.428Z,18.40
2019-04-21T17:29:28.491Z,18.30
2019-04-21T17:31:59.755Z,18.10
2019-04-21T17:34:33.443Z,18.00
2019-04-21T17:37:03.419Z,17.90
2019-04-21T17:39:34.584Z,17.70
2019-04-21T17:42:16.634Z,17.40
2019-04-21T17:44:37.260Z,17.10
2019-04-21T17:47:20.102Z,17.00
2019-04-21T17:49:39.333Z,16.80
2019-04-21T17:52:16.919Z,16.70
2019-04-21T17:54:50.588Z,16.60
2019-04-21T17:57:36.457Z,16.40
2019-04-21T18:00:14.017Z,16.20
2019-04-21T18:02:41.355Z,16.10
2019-04-21T18:05:15.575Z,16.00
2019-04-21T18:07:41.856Z,15.90
2019-04-21T18:10:14.300Z,15.70
2019-04-21T18:12:40.098Z,15.50
2019-04-21T18:15:17.615Z,15.30
2019-04-21T18:17:29.038Z,15.20
2019-04-21T18:19:59.696Z,15.00
2019-04-21T18:22:37.301Z,14.90
2019-04-21T18:25:09.869Z,14.80
2019-04-21T18:27:36.617Z,14.60
2019-04-21T18:30:44.894Z,14.60
2019-04-21T18:33:22.305Z,14.50
2019-04-21T18:35:53.429Z,14.40
2019-04-21T18:38:29.560Z,14.30
2019-04-21T18:40:56.430Z,14.10
2019-04-21T18:44:04.105Z,14.00
2019-04-21T18:46:22.293Z,13.80
2019-04-21T18:48:47.023Z,13.70
2019-04-21T18:51:18.691Z,13.60
2019-04-21T18:54:16.193Z,13.60
2019-04-21T18:56:25.278Z,13.50
2019-04-21T18:58:56.358Z,13.40
2019-04-21T19:01:29.668Z,13.30
2019-04-21T19:03:58.304Z,13.30
2019-04-21T19:06:45.879Z,13.20
2019-04-21T19:09:20.001Z,13.10
2019-04-21T19:11:51.870Z,12.90
2019-04-21T19:14:32.127Z,12.90
2019-04-21T19:17:39.583Z,12.70
2019-04-21T19:19:41.298Z,12.60
2019-04-21T19:22:00.529Z,12.50
2019-04-21T19:24:37.021Z,12.40
2019-04-21T19:27:19.245Z,12.20
2019-04-21T19:32:01.782Z,12.10
2019-04-21T19:34:23.750Z,12.00
2019-04-21T19:36:55.827Z,11.90
2019-04-21T19:39:36.420Z,11.80
2019-04-21T19:42:00.550Z,11.70
2019-04-21T19:44:44.875Z,11.70
2019-04-21T19:47:13.763Z,12.40
2019-04-21T19:49:47.691Z,11.60
2019-04-21T19:52:04.022Z,11.60
2019-04-21T19:54:35.894Z,11.50
2019-04-21T19:56:59.264Z,11.50
2019-04-21T19:59:36.614Z,11.50
2019-04-21T20:02:00.642Z,11.40
2019-04-21T20:04:38.487Z,11.30
2019-04-21T20:07:19.020Z,11.20
2019-04-21T20:09:49.061Z,11.10
2019-04-21T20:12:29.733Z,11.10
2019-04-21T20:15:08.846Z,11.10
2019-04-21T20:17:18.845Z,11.00
2019-04-21T20:19:40.279Z,11.00
2019-04-21T20:22:11.307Z,10.90
2019-04-21T20:24:50.842Z,11.00
2019-04-21T20:27:17.766Z,11.00
2019-04-21T20:30:02.624Z,11.00
2019-04-21T20:32:30.646Z,11.00
2019-04-21T20:35:07.153Z,11.00
2019-04-21T20:37:32.072Z,10.90
2019-04-21T20:39:58.447Z,10.80
2019-04-21T20:42:36.758Z,10.70
2019-04-21T20:45:23.544Z,10.60
2019-04-21T20:47:32.092Z,10.60
2019-04-21T20:50:11.433Z,10.60
2019-04-21T20:52:50.943Z,10.60
2019-04-21T20:55:10.914Z,10.60
2019-04-21T20:57:41.775Z,10.60
2019-04-21T21:00:21.576Z,10.50
2019-04-21T21:02:55.559Z,10.50
2019-04-21T21:05:23.083Z,10.30
2019-04-21T21:08:00.390Z,10.20
2019-04-21T21:10:26.393Z,10.00
2019-04-21T21:13:12.809Z,10.00
2019-04-21T21:15:29.228Z,10.00
2019-04-21T21:18:06.234Z,10.00
2019-04-21T21:20:35.762Z,9.90
2019-04-21T21:22:58.443Z,10.00
2019-04-21T21:25:39.870Z,10.00
2019-04-21T21:27:57.945Z,10.00
2019-04-21T21:30:34.787Z,10.00
2019-04-21T21:33:15.333Z,10.00
2019-04-21T21:35:39.533Z,9.90
2019-04-21T21:38:13.150Z,9.80
2019-04-21T21:40:42.775Z,9.80
2019-04-21T21:43:08.176Z,9.80
2019-04-21T21:45:41.494Z,9.80
2019-04-21T21:48:21.774Z,9.70
2019-04-21T21:50:45.713Z,9.60
2019-04-21T21:53:13.664Z,9.50
2019-04-21T21:55:38.652Z,9.50
2019-04-21T21:58:10.475Z,9.50
2019-04-21T22:00:43.023Z,9.50
2019-04-21T22:03:22.699Z,9.50
2019-04-21T22:05:53.552Z,9.40
2019-04-21T22:08:16.366Z,9.30
2019-04-21T22:10:47.353Z,9.30
2019-04-21T22:13:20.350Z,9.20
2019-04-21T22:15:56.459Z,9.20
2019-04-21T22:18:39.062Z,9.30
2019-04-21T22:21:09.137Z,9.30
2019-04-21T22:23:35.648Z,9.30
2019-04-21T22:25:55.415Z,9.10
2019-04-21T22:28:25.534Z,9.20
2019-04-21T22:30:56.751Z,9.10
2019-04-21T22:33:31.285Z,9.00
2019-04-21T22:36:05.908Z,8.90
2019-04-21T22:38:43.455Z,8.80
2019-04-21T22:41:18.126Z,8.70
2019-04-21T22:43:40.003Z,8.70
2019-04-21T22:46:03.435Z,8.60
2019-04-21T22:48:34.581Z,8.50
2019-04-21T22:51:08.841Z,8.30
2019-04-21T22:53:44.800Z,8.20
2019-04-21T22:56:15.009Z,8.20
2019-04-21T22:58:42.522Z,8.20
2019-04-21T23:01:11.021Z,8.20
2019-04-21T23:03:49.203Z,8.20
2019-04-21T23:06:19.270Z,8.20
2019-04-21T23:08:45.660Z,8.20
2019-04-21T23:11:16.662Z,8.30
2019-04-21T23:13:52.673Z,8.30
2019-04-21T23:16:20.534Z,8.20
2019-04-21T23:19:05.941Z,8.20
2019-04-21T23:21:42.128Z,8.20
2019-04-21T23:24:09.420Z,8.30
2019-04-21T23:26:39.484Z,8.20
2019-04-21T23:29:15.645Z,8.30
2019-04-21T23:31:47.596Z,8.30
2019-04-21T23:33:58.154Z,8.30
2019-04-21T23:36:31.433Z,8.40
2019-04-21T23:38:59.239Z,8.30
2019-04-21T23:41:36.035Z,8.30
2019-04-21T23:44:05.869Z,8.20
2019-04-21T23:46:35.144Z,8.20
2019-04-21T23:49:20.065Z,8.20
2019-04-21T23:51:43.485Z,8.30
2019-04-21T23:54:07.014Z,8.30
2019-04-21T23:56:40.899Z,8.30
2019-04-21T23:59:11.564Z,8.30
